sensor_id;sensor_type;location;lat;lon;timestamp;temperature;humidity
1455;DHT22;721;48.168;12.818;2024-03-02T00:01:11;6.10;47.40
1455;DHT22;721;48.168;12.818;2024-03-02T00:03:38;6.10;47.40
1455;DHT22;721;48.168;12.818;2024-03-02T00:06:05;6.00;47.30
1455;DHT22;721;48.168;12.818;2024-03-02T00:08:32;6.10;47.40
1455;DHT22;721;48.168;12.818;2024-03-02T00:10:59;6.00;46.60
1455;DHT22;721;48.168;12.818;2024-03-02T00:13:27;6.00;48.20
1455;DHT22;721;48.168;12.818;2024-03-02T00:15:54;5.80;49.90
1455;DHT22;721;48.168;12.818;2024-03-02T00:18:26;5.90;50.50
1455;DHT22;721;48.168;12.818;2024-03-02T00:20:54;5.80;49.90
1455;DHT22;721;48.168;12.818;2024-03-02T00:23:23;5.90;49.50
1455;DHT22;721;48.168;12.818;2024-03-02T00:25:51;5.90;50.50
1455;DHT22;721;48.168;12.818;2024-03-02T00:28:20;6.00;50.70
1455;DHT22;721;48.168;12.818;2024-03-02T00:31:02;5.90;49.50
1455;DHT22;721;48.168;12.818;2024-03-02T00:33:33;6.70;52.20
1455;DHT22;721;48.168;12.818;2024-03-02T00:36:01;5.90;49.00
1455;DHT22;721;48.168;12.818;2024-03-02T00:38:29;5.80;50.00
1455;DHT22;721;48.168;12.818;2024-03-02T00:40:56;5.80;51.80
1455;DHT22;721;48.168;12.818;2024-03-02T00:43:43;5.80;50.30
1455;DHT22;721;48.168;12.818;2024-03-02T00:46:16;5.80;51.20
1455;DHT22;721;48.168;12.818;2024-03-02T00:48:50;5.80;51.30
1455;DHT22;721;48.168;12.818;2024-03-02T00:51:18;5.70;50.30
1455;DHT22;721;48.168;12.818;2024-03-02T00:53:45;5.80;51.40
1455;DHT22;721;48.168;12.818;2024-03-02T00:56:11;5.80;51.70
1455;DHT22;721;48.168;12.818;2024-03-02T00:58:39;5.80;51.10
1455;DHT22;721;48.168;12.818;2024-03-02T01:01:06;5.90;51.40
1455;DHT22;721;48.168;12.818;2024-03-02T01:03:33;5.80;53.20
1455;DHT22;721;48.168;12.818;2024-03-02T01:06:01;5.90;53.10
1455;DHT22;721;48.168;12.818;2024-03-02T01:08:28;5.80;53.00
1455;DHT22;721;48.168;12.818;2024-03-02T01:10:55;5.90;53.70
1455;DHT22;721;48.168;12.818;2024-03-02T01:13:22;5.90;53.60
1455;DHT22;721;48.168;12.818;2024-03-02T01:15:49;6.00;52.90
1455;DHT22;721;48.168;12.818;2024-03-02T01:18:16;6.00;51.50
1455;DHT22;721;48.168;12.818;2024-03-02T01:20:43;6.00;51.50
1455;DHT22;721;48.168;12.818;2024-03-02T01:23:11;5.90;51.00
1455;DHT22;721;48.168;12.818;2024-03-02T01:25:38;6.00;49.40
1455;DHT22;721;48.168;12.818;2024-03-02T01:28:05;6.00;48.00
1455;DHT22;721;48.168;12.818;2024-03-02T01:30:32;6.00;47.30
1455;DHT22;721;48.168;12.818;2024-03-02T01:32:58;6.00;46.30
1455;DHT22;721;48.168;12.818;2024-03-02T01:35:25;6.20;45.30
1455;DHT22;721;48.168;12.818;2024-03-02T01:37:53;6.00;44.30
1455;DHT22;721;48.168;12.818;2024-03-02T01:40:21;6.30;45.60
1455;DHT22;721;48.168;12.818;2024-03-02T01:42:52;6.00;44.80
1455;DHT22;721;48.168;12.818;2024-03-02T01:45:18;5.90;45.30
1455;DHT22;721;48.168;12.818;2024-03-02T01:47:45;5.90;45.20
1455;DHT22;721;48.168;12.818;2024-03-02T01:50:12;5.90;44.90
1455;DHT22;721;48.168;12.818;2024-03-02T01:52:40;5.90;44.90
1455;DHT22;721;48.168;12.818;2024-03-02T01:55:07;5.90;44.90
1455;DHT22;721;48.168;12.818;2024-03-02T01:57:35;5.90;44.90
1455;DHT22;721;48.168;12.818;2024-03-02T02:00:02;5.90;44.90
1455;DHT22;721;48.168;12.818;2024-03-02T02:02:31;5.90;44.90
1455;DHT22;721;48.168;12.818;2024-03-02T02:04:57;5.90;43.50
1455;DHT22;721;48.168;12.818;2024-03-02T02:07:24;5.80;44.10
1455;DHT22;721;48.168;12.818;2024-03-02T02:09:51;5.80;44.60
1455;DHT22;721;48.168;12.818;2024-03-02T02:12:18;5.80;44.50
1455;DHT22;721;48.168;12.818;2024-03-02T02:14:48;5.90;43.70
1455;DHT22;721;48.168;12.818;2024-03-02T02:17:15;5.80;42.50
1455;DHT22;721;48.168;12.818;2024-03-02T02:19:42;6.00;42.60
1455;DHT22;721;48.168;12.818;2024-03-02T02:22:10;5.90;42.00
1455;DHT22;721;48.168;12.818;2024-03-02T02:24:39;5.80;42.60
1455;DHT22;721;48.168;12.818;2024-03-02T02:27:06;5.70;44.50
1455;DHT22;721;48.168;12.818;2024-03-02T02:29:33;5.70;45.10
1455;DHT22;721;48.168;12.818;2024-03-02T02:32:00;5.70;44.10
1455;DHT22;721;48.168;12.818;2024-03-02T02:34:27;5.70;44.30
1455;DHT22;721;48.168;12.818;2024-03-02T02:36:54;5.70;44.50
1455;DHT22;721;48.168;12.818;2024-03-02T02:39:22;5.70;45.90
1455;DHT22;721;48.168;12.818;2024-03-02T02:41:49;5.70;45.00
1455;DHT22;721;48.168;12.818;2024-03-02T02:44:16;5.60;46.40
1455;DHT22;721;48.168;12.818;2024-03-02T02:46:43;5.70;46.10
1455;DHT22;721;48.168;12.818;2024-03-02T02:49:09;5.40;46.90
1455;DHT22;721;48.168;12.818;2024-03-02T02:51:36;5.40;47.70
1455;DHT22;721;48.168;12.818;2024-03-02T02:54:03;5.40;47.80
1455;DHT22;721;48.168;12.818;2024-03-02T02:56:31;5.40;48.00
1455;DHT22;721;48.168;12.818;2024-03-02T02:58:58;5.40;50.70
1455;DHT22;721;48.168;12.818;2024-03-02T03:01:25;5.30;49.40
1455;DHT22;721;48.168;12.818;2024-03-02T03:03:52;5.10;49.20
1455;DHT22;721;48.168;12.818;2024-03-02T03:06:19;5.10;51.10
1455;DHT22;721;48.168;12.818;2024-03-02T03:08:45;5.10;51.20
1455;DHT22;721;48.168;12.818;2024-03-02T03:11:12;5.20;50.90
1455;DHT22;721;48.168;12.818;2024-03-02T03:13:41;5.20;49.70
1455;DHT22;721;48.168;12.818;2024-03-02T03:16:08;5.20;51.00
1455;DHT22;721;48.168;12.818;2024-03-02T03:18:34;5.20;50.70
1455;DHT22;721;48.168;12.818;2024-03-02T03:21:01;5.20;50.70
1455;DHT22;721;48.168;12.818;2024-03-02T03:23:28;5.20;50.70
1455;DHT22;721;48.168;12.818;2024-03-02T03:25:55;5.20;51.10
1455;DHT22;721;48.168;12.818;2024-03-02T03:28:22;5.30;51.30
1455;DHT22;721;48.168;12.818;2024-03-02T03:30:50;5.10;50.60
1455;DHT22;721;48.168;12.818;2024-03-02T03:33:17;5.10;51.20
1455;DHT22;721;48.168;12.818;2024-03-02T03:35:43;5.50;50.40
1455;DHT22;721;48.168;12.818;2024-03-02T03:38:10;5.10;51.20
1455;DHT22;721;48.168;12.818;2024-03-02T03:40:37;5.10;51.20
1455;DHT22;721;48.168;12.818;2024-03-02T03:43:04;5.20;49.90
1455;DHT22;721;48.168;12.818;2024-03-02T03:45:30;5.20;49.20
1455;DHT22;721;48.168;12.818;2024-03-02T03:47:59;5.40;51.50
1455;DHT22;721;48.168;12.818;2024-03-02T03:50:25;5.80;49.00
1455;DHT22;721;48.168;12.818;2024-03-02T03:52:52;5.20;49.90
1455;DHT22;721;48.168;12.818;2024-03-02T03:55:19;5.20;49.80
1455;DHT22;721;48.168;12.818;2024-03-02T03:57:45;5.20;48.30
1455;DHT22;721;48.168;12.818;2024-03-02T04:00:12;5.20;49.70
1455;DHT22;721;48.168;12.818;2024-03-02T04:02:39;5.20;50.20
1455;DHT22;721;48.168;12.818;2024-03-02T04:05:08;5.40;49.40
1455;DHT22;721;48.168;12.818;2024-03-02T04:07:36;5.20;48.50
1455;DHT22;721;48.168;12.818;2024-03-02T04:10:07;5.30;49.20
1455;DHT22;721;48.168;12.818;2024-03-02T04:12:35;5.30;48.60
1455;DHT22;721;48.168;12.818;2024-03-02T04:15:02;5.30;48.30
1455;DHT22;721;48.168;12.818;2024-03-02T04:17:31;5.20;49.30
1455;DHT22;721;48.168;12.818;2024-03-02T04:19:58;5.20;51.10
1455;DHT22;721;48.168;12.818;2024-03-02T04:22:26;5.30;51.30
1455;DHT22;721;48.168;12.818;2024-03-02T04:24:53;5.30;50.50
1455;DHT22;721;48.168;12.818;2024-03-02T04:27:20;5.40;50.30
1455;DHT22;721;48.168;12.818;2024-03-02T04:29:47;5.30;50.20
1455;DHT22;721;48.168;12.818;2024-03-02T04:32:14;5.10;51.30
1455;DHT22;721;48.168;12.818;2024-03-02T04:34:40;5.10;50.60
1455;DHT22;721;48.168;12.818;2024-03-02T04:37:08;5.20;49.90
1455;DHT22;721;48.168;12.818;2024-03-02T04:39:36;5.20;49.60
1455;DHT22;721;48.168;12.818;2024-03-02T04:42:03;5.10;49.20
1455;DHT22;721;48.168;12.818;2024-03-02T04:44:30;5.20;49.00
1455;DHT22;721;48.168;12.818;2024-03-02T04:46:56;5.30;49.10
1455;DHT22;721;48.168;12.818;2024-03-02T04:49:23;5.80;48.80
1455;DHT22;721;48.168;12.818;2024-03-02T04:51:50;5.30;48.00
1455;DHT22;721;48.168;12.818;2024-03-02T04:54:18;5.30;47.40
1455;DHT22;721;48.168;12.818;2024-03-02T04:56:46;6.20;47.50
1455;DHT22;721;48.168;12.818;2024-03-02T04:59:16;5.40;47.40
1455;DHT22;721;48.168;12.818;2024-03-02T05:01:44;5.30;47.70
1455;DHT22;721;48.168;12.818;2024-03-02T05:04:10;5.30;49.00
1455;DHT22;721;48.168;12.818;2024-03-02T05:06:38;5.30;50.30
1455;DHT22;721;48.168;12.818;2024-03-02T05:09:06;5.30;51.30
1455;DHT22;721;48.168;12.818;2024-03-02T05:11:33;5.30;51.30
1455;DHT22;721;48.168;12.818;2024-03-02T05:14:18;5.30;51.60
1455;DHT22;721;48.168;12.818;2024-03-02T05:16:45;5.30;51.40
1455;DHT22;721;48.168;12.818;2024-03-02T05:19:11;5.40;51.40
1455;DHT22;721;48.168;12.818;2024-03-02T05:21:38;5.40;51.50
1455;DHT22;721;48.168;12.818;2024-03-02T05:24:05;5.40;50.80
1455;DHT22;721;48.168;12.818;2024-03-02T05:26:32;5.40;49.60
1455;DHT22;721;48.168;12.818;2024-03-02T05:28:59;5.30;50.50
1455;DHT22;721;48.168;12.818;2024-03-02T05:31:27;5.30;50.20
1455;DHT22;721;48.168;12.818;2024-03-02T05:33:54;5.20;50.70
1455;DHT22;721;48.168;12.818;2024-03-02T05:36:20;5.20;51.30
1455;DHT22;721;48.168;12.818;2024-03-02T05:38:47;5.20;50.00
1455;DHT22;721;48.168;12.818;2024-03-02T05:41:14;5.20;51.80
1455;DHT22;721;48.168;12.818;2024-03-02T05:43:41;5.20;51.30
1455;DHT22;721;48.168;12.818;2024-03-02T05:46:07;5.20;49.90
1455;DHT22;721;48.168;12.818;2024-03-02T05:48:35;5.10;50.00
1455;DHT22;721;48.168;12.818;2024-03-02T05:51:02;6.10;52.10
1455;DHT22;721;48.168;12.818;2024-03-02T05:53:29;5.10;52.20
1455;DHT22;721;48.168;12.818;2024-03-02T05:55:56;5.10;52.10
1455;DHT22;721;48.168;12.818;2024-03-02T05:58:23;5.10;52.40
1455;DHT22;721;48.168;12.818;2024-03-02T06:01:03;5.10;52.60
1455;DHT22;721;48.168;12.818;2024-03-02T06:03:30;5.00;52.00
1455;DHT22;721;48.168;12.818;2024-03-02T06:05:58;4.90;53.70
1455;DHT22;721;48.168;12.818;2024-03-02T06:08:25;4.80;56.50
1455;DHT22;721;48.168;12.818;2024-03-02T06:10:52;4.70;57.90
1455;DHT22;721;48.168;12.818;2024-03-02T06:13:19;4.80;58.20
1455;DHT22;721;48.168;12.818;2024-03-02T06:15:45;4.70;59.00
1455;DHT22;721;48.168;12.818;2024-03-02T06:18:12;4.70;60.50
1455;DHT22;721;48.168;12.818;2024-03-02T06:20:39;4.80;59.40
1455;DHT22;721;48.168;12.818;2024-03-02T06:23:07;4.80;59.10
1455;DHT22;721;48.168;12.818;2024-03-02T06:25:34;4.70;61.30
1455;DHT22;721;48.168;12.818;2024-03-02T06:28:00;4.70;60.40
1455;DHT22;721;48.168;12.818;2024-03-02T06:30:27;4.60;62.10
1455;DHT22;721;48.168;12.818;2024-03-02T06:32:55;4.70;62.70
1455;DHT22;721;48.168;12.818;2024-03-02T06:35:21;4.80;62.40
1455;DHT22;721;48.168;12.818;2024-03-02T06:37:48;4.90;61.80
1455;DHT22;721;48.168;12.818;2024-03-02T06:40:16;5.00;60.20
1455;DHT22;721;48.168;12.818;2024-03-02T06:42:44;5.10;60.20
1455;DHT22;721;48.168;12.818;2024-03-02T06:45:11;5.00;58.40
1455;DHT22;721;48.168;12.818;2024-03-02T06:47:37;5.00;60.10
1455;DHT22;721;48.168;12.818;2024-03-02T06:50:05;4.90;59.70
1455;DHT22;721;48.168;12.818;2024-03-02T06:52:32;4.80;60.00
1455;DHT22;721;48.168;12.818;2024-03-02T06:54:59;4.80;61.30
1455;DHT22;721;48.168;12.818;2024-03-02T06:57:27;4.80;62.00
1455;DHT22;721;48.168;12.818;2024-03-02T06:59:54;4.70;61.00
1455;DHT22;721;48.168;12.818;2024-03-02T07:02:23;4.70;61.70
1455;DHT22;721;48.168;12.818;2024-03-02T07:04:52;4.80;61.50
1455;DHT22;721;48.168;12.818;2024-03-02T07:07:19;4.70;61.00
1455;DHT22;721;48.168;12.818;2024-03-02T07:09:46;4.70;61.30
1455;DHT22;721;48.168;12.818;2024-03-02T07:12:13;4.80;61.50
1455;DHT22;721;48.168;12.818;2024-03-02T07:14:41;4.80;61.30
1455;DHT22;721;48.168;12.818;2024-03-02T07:17:25;4.80;61.40
1455;DHT22;721;48.168;12.818;2024-03-02T07:19:52;4.90;60.10
1455;DHT22;721;48.168;12.818;2024-03-02T07:22:19;4.90;60.10
1455;DHT22;721;48.168;12.818;2024-03-02T07:24:46;4.90;59.50
1455;DHT22;721;48.168;12.818;2024-03-02T07:27:13;4.90;59.40
1455;DHT22;721;48.168;12.818;2024-03-02T07:29:42;4.80;60.10
1455;DHT22;721;48.168;12.818;2024-03-02T07:32:10;4.80;60.00
1455;DHT22;721;48.168;12.818;2024-03-02T07:34:37;4.80;62.30
1455;DHT22;721;48.168;12.818;2024-03-02T07:37:04;4.70;62.10
1455;DHT22;721;48.168;12.818;2024-03-02T07:39:31;4.70;63.00
1455;DHT22;721;48.168;12.818;2024-03-02T07:41:58;4.80;64.20
1455;DHT22;721;48.168;12.818;2024-03-02T07:44:25;5.00;63.70
1455;DHT22;721;48.168;12.818;2024-03-02T07:46:54;5.00;62.30
1455;DHT22;721;48.168;12.818;2024-03-02T07:49:21;5.60;63.50
1455;DHT22;721;48.168;12.818;2024-03-02T07:51:47;5.10;62.70
1455;DHT22;721;48.168;12.818;2024-03-02T07:54:14;5.10;62.30
1455;DHT22;721;48.168;12.818;2024-03-02T07:56:41;5.00;62.10
1455;DHT22;721;48.168;12.818;2024-03-02T07:59:08;5.40;63.80
1455;DHT22;721;48.168;12.818;2024-03-02T08:01:35;5.20;63.40
1455;DHT22;721;48.168;12.818;2024-03-02T08:04:03;5.20;62.70
1455;DHT22;721;48.168;12.818;2024-03-02T08:06:30;5.30;61.90
1455;DHT22;721;48.168;12.818;2024-03-02T08:08:58;5.30;60.80
1455;DHT22;721;48.168;12.818;2024-03-02T08:11:26;5.40;60.50
1455;DHT22;721;48.168;12.818;2024-03-02T08:13:54;5.30;59.70
1455;DHT22;721;48.168;12.818;2024-03-02T08:16:21;5.10;61.80
1455;DHT22;721;48.168;12.818;2024-03-02T08:18:49;5.10;64.20
1455;DHT22;721;48.168;12.818;2024-03-02T08:21:17;5.20;64.70
1455;DHT22;721;48.168;12.818;2024-03-02T08:23:44;5.20;64.90
1455;DHT22;721;48.168;12.818;2024-03-02T08:26:11;5.30;66.30
1455;DHT22;721;48.168;12.818;2024-03-02T08:28:39;5.30;65.20
1455;DHT22;721;48.168;12.818;2024-03-02T08:31:06;5.40;65.10
1455;DHT22;721;48.168;12.818;2024-03-02T08:33:32;5.80;64.10
1455;DHT22;721;48.168;12.818;2024-03-02T08:36:00;5.40;63.20
1455;DHT22;721;48.168;12.818;2024-03-02T08:38:28;5.50;62.80
1455;DHT22;721;48.168;12.818;2024-03-02T08:40:55;5.70;62.60
1455;DHT22;721;48.168;12.818;2024-03-02T08:43:22;5.70;63.00
1455;DHT22;721;48.168;12.818;2024-03-02T08:45:49;5.80;62.90
1455;DHT22;721;48.168;12.818;2024-03-02T08:48:16;5.90;61.50
1455;DHT22;721;48.168;12.818;2024-03-02T08:50:43;6.10;60.00
1455;DHT22;721;48.168;12.818;2024-03-02T08:53:10;6.20;58.90
1455;DHT22;721;48.168;12.818;2024-03-02T08:55:38;6.20;57.60
1455;DHT22;721;48.168;12.818;2024-03-02T08:58:04;6.20;55.00
1455;DHT22;721;48.168;12.818;2024-03-02T09:00:31;6.00;56.60
1455;DHT22;721;48.168;12.818;2024-03-02T09:02:58;6.10;60.40
1455;DHT22;721;48.168;12.818;2024-03-02T09:05:25;6.20;59.20
1455;DHT22;721;48.168;12.818;2024-03-02T09:07:51;6.20;58.60
1455;DHT22;721;48.168;12.818;2024-03-02T09:10:18;6.10;56.70
1455;DHT22;721;48.168;12.818;2024-03-02T09:12:46;6.20;58.50
1455;DHT22;721;48.168;12.818;2024-03-02T09:15:13;6.30;60.50
1455;DHT22;721;48.168;12.818;2024-03-02T09:17:40;6.40;59.90
1455;DHT22;721;48.168;12.818;2024-03-02T09:20:07;6.50;58.80
1455;DHT22;721;48.168;12.818;2024-03-02T09:22:34;6.60;57.70
1455;DHT22;721;48.168;12.818;2024-03-02T09:25:01;6.60;57.90
1455;DHT22;721;48.168;12.818;2024-03-02T09:27:28;6.70;58.30
1455;DHT22;721;48.168;12.818;2024-03-02T09:29:56;6.80;58.40
1455;DHT22;721;48.168;12.818;2024-03-02T10:02:16;7.70;49.30
1455;DHT22;721;48.168;12.818;2024-03-02T10:04:44;7.80;49.80
1455;DHT22;721;48.168;12.818;2024-03-02T10:07:13;7.90;49.50
1455;DHT22;721;48.168;12.818;2024-03-02T10:09:41;7.90;49.50
1455;DHT22;721;48.168;12.818;2024-03-02T10:12:09;8.00;50.00
1455;DHT22;721;48.168;12.818;2024-03-02T10:14:37;8.10;49.20
1455;DHT22;721;48.168;12.818;2024-03-02T10:17:05;8.20;48.10
1455;DHT22;721;48.168;12.818;2024-03-02T10:19:33;8.20;48.40
1455;DHT22;721;48.168;12.818;2024-03-02T10:22:03;8.30;48.80
1455;DHT22;721;48.168;12.818;2024-03-02T10:24:36;8.40;48.50
1455;DHT22;721;48.168;12.818;2024-03-02T10:27:10;8.40;48.20
1455;DHT22;721;48.168;12.818;2024-03-02T10:29:38;8.90;45.20
1455;DHT22;721;48.168;12.818;2024-03-02T10:32:05;8.50;43.50
1455;DHT22;721;48.168;12.818;2024-03-02T10:34:36;8.60;46.00
1455;DHT22;721;48.168;12.818;2024-03-02T10:37:12;8.70;49.70
1455;DHT22;721;48.168;12.818;2024-03-02T10:39:40;9.20;50.70
1455;DHT22;721;48.168;12.818;2024-03-02T10:42:08;9.00;48.20
1455;DHT22;721;48.168;12.818;2024-03-02T10:44:35;9.10;45.40
1455;DHT22;721;48.168;12.818;2024-03-02T10:47:03;9.10;44.80
1455;DHT22;721;48.168;12.818;2024-03-02T10:49:30;9.20;44.60
1455;DHT22;721;48.168;12.818;2024-03-02T10:51:59;9.20;45.40
1455;DHT22;721;48.168;12.818;2024-03-02T10:54:27;9.30;45.20
1455;DHT22;721;48.168;12.818;2024-03-02T10:56:58;9.30;44.20
1455;DHT22;721;48.168;12.818;2024-03-02T10:59:28;9.30;45.90
1455;DHT22;721;48.168;12.818;2024-03-02T11:01:57;9.50;46.00
1455;DHT22;721;48.168;12.818;2024-03-02T11:04:25;9.50;45.70
1455;DHT22;721;48.168;12.818;2024-03-02T11:06:56;9.70;45.90
1455;DHT22;721;48.168;12.818;2024-03-02T11:09:28;9.80;42.00
1455;DHT22;721;48.168;12.818;2024-03-02T11:12:02;9.90;42.60
1455;DHT22;721;48.168;12.818;2024-03-02T11:14:32;9.90;38.50
1455;DHT22;721;48.168;12.818;2024-03-02T11:17:00;10.00;36.80
1455;DHT22;721;48.168;12.818;2024-03-02T11:19:28;10.10;34.00
1455;DHT22;721;48.168;12.818;2024-03-02T11:21:55;10.20;34.50
1455;DHT22;721;48.168;12.818;2024-03-02T11:24:33;10.10;33.10
1455;DHT22;721;48.168;12.818;2024-03-02T11:27:00;10.10;31.50
1455;DHT22;721;48.168;12.818;2024-03-02T11:29:52;10.30;33.00
1455;DHT22;721;48.168;12.818;2024-03-02T11:32:21;10.40;33.80
1455;DHT22;721;48.168;12.818;2024-03-02T11:34:50;10.50;32.00
1455;DHT22;721;48.168;12.818;2024-03-02T11:37:18;10.80;31.30
1455;DHT22;721;48.168;12.818;2024-03-02T11:39:49;11.10;28.10
1455;DHT22;721;48.168;12.818;2024-03-02T11:42:16;11.30;25.60
1455;DHT22;721;48.168;12.818;2024-03-02T11:44:46;11.50;23.50
1455;DHT22;721;48.168;12.818;2024-03-02T11:47:14;11.30;25.20
1455;DHT22;721;48.168;12.818;2024-03-02T11:49:43;11.70;24.10
1455;DHT22;721;48.168;12.818;2024-03-02T11:52:11;11.60;19.80
1455;DHT22;721;48.168;12.818;2024-03-02T11:54:40;11.70;20.70
1455;DHT22;721;48.168;12.818;2024-03-02T11:57:13;11.70;19.90
1455;DHT22;721;48.168;12.818;2024-03-02T11:59:40;11.70;19.10
1455;DHT22;721;48.168;12.818;2024-03-02T12:02:14;11.60;19.30
1455;DHT22;721;48.168;12.818;2024-03-02T12:04:42;11.80;20.30
1455;DHT22;721;48.168;12.818;2024-03-02T12:07:10;11.90;20.10
1455;DHT22;721;48.168;12.818;2024-03-02T12:09:37;11.90;19.50
1455;DHT22;721;48.168;12.818;2024-03-02T12:12:05;12.00;16.00
1455;DHT22;721;48.168;12.818;2024-03-02T12:14:34;12.10;17.20
1455;DHT22;721;48.168;12.818;2024-03-02T12:17:01;12.40;14.40
1455;DHT22;721;48.168;12.818;2024-03-02T12:19:29;12.70;12.50
1455;DHT22;721;48.168;12.818;2024-03-02T12:21:56;13.30;10.10
1455;DHT22;721;48.168;12.818;2024-03-02T12:24:24;13.60;9.50
1455;DHT22;721;48.168;12.818;2024-03-02T12:26:51;13.50;9.50
1455;DHT22;721;48.168;12.818;2024-03-02T12:29:19;14.00;6.50
1455;DHT22;721;48.168;12.818;2024-03-02T12:31:48;13.90;7.20
1455;DHT22;721;48.168;12.818;2024-03-02T12:34:16;13.90;4.40
1455;DHT22;721;48.168;12.818;2024-03-02T12:36:44;14.00;3.30
1455;DHT22;721;48.168;12.818;2024-03-02T12:39:13;13.80;3.70
1455;DHT22;721;48.168;12.818;2024-03-02T12:41:40;13.70;4.80
1455;DHT22;721;48.168;12.818;2024-03-02T12:44:07;13.60;5.60
1455;DHT22;721;48.168;12.818;2024-03-02T12:46:34;14.10;4.70
1455;DHT22;721;48.168;12.818;2024-03-02T12:49:08;15.30;2.80
1455;DHT22;721;48.168;12.818;2024-03-02T12:51:37;14.90;1.70
1455;DHT22;721;48.168;12.818;2024-03-02T12:54:06;14.90;1.00
1455;DHT22;721;48.168;12.818;2024-03-02T12:56:32;15.30;1.00
1455;DHT22;721;48.168;12.818;2024-03-02T12:58:59;14.90;1.00
1455;DHT22;721;48.168;12.818;2024-03-02T13:01:26;15.30;1.00
1455;DHT22;721;48.168;12.818;2024-03-02T13:03:53;16.00;1.00
1455;DHT22;721;48.168;12.818;2024-03-02T13:06:23;15.90;1.00
1455;DHT22;721;48.168;12.818;2024-03-02T13:08:52;15.80;1.00
1455;DHT22;721;48.168;12.818;2024-03-02T13:11:21;15.60;1.00
1455;DHT22;721;48.168;12.818;2024-03-02T13:13:48;15.70;1.00
1455;DHT22;721;48.168;12.818;2024-03-02T13:16:15;15.70;1.00
1455;DHT22;721;48.168;12.818;2024-03-02T13:18:44;15.50;1.00
1455;DHT22;721;48.168;12.818;2024-03-02T13:21:11;15.80;1.00
1455;DHT22;721;48.168;12.818;2024-03-02T13:23:39;16.30;1.00
1455;DHT22;721;48.168;12.818;2024-03-02T13:26:06;16.00;1.00
1455;DHT22;721;48.168;12.818;2024-03-02T13:28:36;16.10;1.00
1455;DHT22;721;48.168;12.818;2024-03-02T13:31:03;16.20;1.00
1455;DHT22;721;48.168;12.818;2024-03-02T13:33:30;16.20;1.00
1455;DHT22;721;48.168;12.818;2024-03-02T13:35:58;16.50;1.00
1455;DHT22;721;48.168;12.818;2024-03-02T13:38:25;16.50;1.00
1455;DHT22;721;48.168;12.818;2024-03-02T13:40:53;16.80;1.00
1455;DHT22;721;48.168;12.818;2024-03-02T13:43:20;16.80;1.00
1455;DHT22;721;48.168;12.818;2024-03-02T13:45:49;16.50;1.00
1455;DHT22;721;48.168;12.818;2024-03-02T13:48:17;16.40;1.00
1455;DHT22;721;48.168;12.818;2024-03-02T13:50:44;16.40;1.00
1455;DHT22;721;48.168;12.818;2024-03-02T13:53:11;16.40;1.00
1455;DHT22;721;48.168;12.818;2024-03-02T13:55:38;17.10;1.00
1455;DHT22;721;48.168;12.818;2024-03-02T13:58:06;17.00;1.00
1455;DHT22;721;48.168;12.818;2024-03-02T14:00:33;17.50;1.00
1455;DHT22;721;48.168;12.818;2024-03-02T14:03:00;17.20;1.00
1455;DHT22;721;48.168;12.818;2024-03-02T14:05:28;17.50;1.00
1455;DHT22;721;48.168;12.818;2024-03-02T14:07:55;17.40;1.00
1455;DHT22;721;48.168;12.818;2024-03-02T14:10:22;17.50;1.00
1455;DHT22;721;48.168;12.818;2024-03-02T14:12:49;18.20;1.00
1455;DHT22;721;48.168;12.818;2024-03-02T14:15:17;17.80;1.00
1455;DHT22;721;48.168;12.818;2024-03-02T14:17:44;17.40;1.00
1455;DHT22;721;48.168;12.818;2024-03-02T14:20:11;17.50;1.00
1455;DHT22;721;48.168;12.818;2024-03-02T14:22:39;17.00;1.00
1455;DHT22;721;48.168;12.818;2024-03-02T14:25:06;17.50;1.00
1455;DHT22;721;48.168;12.818;2024-03-02T14:27:33;17.40;1.00
1455;DHT22;721;48.168;12.818;2024-03-02T14:30:01;17.60;1.00
1455;DHT22;721;48.168;12.818;2024-03-02T14:32:29;17.90;1.00
1455;DHT22;721;48.168;12.818;2024-03-02T14:34:55;17.90;1.00
1455;DHT22;721;48.168;12.818;2024-03-02T14:37:22;18.10;1.00
1455;DHT22;721;48.168;12.818;2024-03-02T14:39:49;18.10;1.00
1455;DHT22;721;48.168;12.818;2024-03-02T14:42:16;17.90;1.00
1455;DHT22;721;48.168;12.818;2024-03-02T14:44:43;18.10;1.00
1455;DHT22;721;48.168;12.818;2024-03-02T14:47:10;18.10;1.00
1455;DHT22;721;48.168;12.818;2024-03-02T14:49:38;18.20;1.00
1455;DHT22;721;48.168;12.818;2024-03-02T14:52:07;18.30;1.00
1455;DHT22;721;48.168;12.818;2024-03-02T14:54:34;18.10;1.00
1455;DHT22;721;48.168;12.818;2024-03-02T14:57:01;18.00;1.00
1455;DHT22;721;48.168;12.818;2024-03-02T14:59:28;18.10;1.00
1455;DHT22;721;48.168;12.818;2024-03-02T15:01:55;18.00;1.00
1455;DHT22;721;48.168;12.818;2024-03-02T15:04:22;17.80;1.00
1455;DHT22;721;48.168;12.818;2024-03-02T15:06:51;17.90;1.00
1455;DHT22;721;48.168;12.818;2024-03-02T15:09:18;17.90;1.00
1455;DHT22;721;48.168;12.818;2024-03-02T15:11:45;17.80;1.00
1455;DHT22;721;48.168;12.818;2024-03-02T15:14:12;17.70;1.00
1455;DHT22;721;48.168;12.818;2024-03-02T15:16:39;17.40;1.00
1455;DHT22;721;48.168;12.818;2024-03-02T15:19:07;17.20;1.00
1455;DHT22;721;48.168;12.818;2024-03-02T15:21:34;17.10;1.00
1455;DHT22;721;48.168;12.818;2024-03-02T15:24:03;17.30;1.00
1455;DHT22;721;48.168;12.818;2024-03-02T15:26:30;16.90;1.00
1455;DHT22;721;48.168;12.818;2024-03-02T15:28:57;16.80;1.00
1455;DHT22;721;48.168;12.818;2024-03-02T15:31:24;17.00;1.00
1455;DHT22;721;48.168;12.818;2024-03-02T15:33:51;17.00;1.00
1455;DHT22;721;48.168;12.818;2024-03-02T15:36:27;16.30;1.00
1455;DHT22;721;48.168;12.818;2024-03-02T15:38:54;16.20;1.00
1455;DHT22;721;48.168;12.818;2024-03-02T15:41:24;16.30;1.00
1455;DHT22;721;48.168;12.818;2024-03-02T15:43:50;16.10;1.00
1455;DHT22;721;48.168;12.818;2024-03-02T15:46:17;15.80;1.00
1455;DHT22;721;48.168;12.818;2024-03-02T15:48:44;15.70;1.00
1455;DHT22;721;48.168;12.818;2024-03-02T15:51:11;15.60;1.00
1455;DHT22;721;48.168;12.818;2024-03-02T15:53:37;15.40;1.00
1455;DHT22;721;48.168;12.818;2024-03-02T15:56:04;15.60;1.00
1455;DHT22;721;48.168;12.818;2024-03-02T15:58:32;15.20;1.00
1455;DHT22;721;48.168;12.818;2024-03-02T16:01:01;15.50;1.00
1455;DHT22;721;48.168;12.818;2024-03-02T16:03:28;15.10;1.00
1455;DHT22;721;48.168;12.818;2024-03-02T16:05:56;15.20;1.00
1455;DHT22;721;48.168;12.818;2024-03-02T16:08:23;15.00;1.00
1455;DHT22;721;48.168;12.818;2024-03-02T16:10:50;14.80;1.00
1455;DHT22;721;48.168;12.818;2024-03-02T16:13:16;14.70;1.00
1455;DHT22;721;48.168;12.818;2024-03-02T16:15:45;14.60;1.00
1455;DHT22;721;48.168;12.818;2024-03-02T16:18:11;15.40;1.00
1455;DHT22;721;48.168;12.818;2024-03-02T16:20:38;14.70;1.00
1455;DHT22;721;48.168;12.818;2024-03-02T16:23:06;14.50;1.00
1455;DHT22;721;48.168;12.818;2024-03-02T16:25:33;14.50;1.00
1455;DHT22;721;48.168;12.818;2024-03-02T16:28:02;14.00;1.00
1455;DHT22;721;48.168;12.818;2024-03-02T16:30:29;13.80;1.00
1455;DHT22;721;48.168;12.818;2024-03-02T16:32:57;13.90;1.00
1455;DHT22;721;48.168;12.818;2024-03-02T16:35:24;13.40;1.00
1455;DHT22;721;48.168;12.818;2024-03-02T16:37:51;13.20;1.00
1455;DHT22;721;48.168;12.818;2024-03-02T16:40:18;13.00;1.00
1455;DHT22;721;48.168;12.818;2024-03-02T16:42:44;13.00;1.00
1455;DHT22;721;48.168;12.818;2024-03-02T16:45:11;12.90;1.00
1455;DHT22;721;48.168;12.818;2024-03-02T16:47:39;13.00;1.00
1455;DHT22;721;48.168;12.818;2024-03-02T16:50:08;12.70;1.00